createdAt,value
2022-07-28T00:00:41.586Z,99911.81
2022-07-28T00:03:47.902Z,99919.03
2022-07-28T00:06:51.033Z,99915.31
2022-07-28T00:09:59.837Z,99909.75
2022-07-28T00:13:03.114Z,99905.16
2022-07-28T00:16:09.806Z,99911.56
2022-07-28T00:19:12.936Z,99916.78
2022-07-28T00:22:15.826Z,99919.84
2022-07-28T00:25:18.868Z,99916.53
2022-07-28T00:28:21.850Z,99920.25
2022-07-28T00:31:24.621Z,99912.78
2022-07-28T00:34:27.983Z,99906.38
2022-07-28T00:37:30.802Z,99907.38
2022-07-28T00:40:52.659Z,99908.63
2022-07-28T00:43:55.436Z,99900.53
2022-07-28T00:46:58.430Z,99901.75
2022-07-28T00:50:02.786Z,99897.62
2022-07-28T00:53:06.815Z,99903.41
2022-07-28T00:56:12.729Z,99899.75
2022-07-28T00:59:16.051Z,99893.09
2022-07-28T01:02:19.311Z,99898.12
2022-07-28T01:05:43.774Z,99895.44
2022-07-28T01:09:04.467Z,99904.94
2022-07-28T01:12:22.542Z,99894.34
2022-07-28T01:15:41.196Z,99887.72
2022-07-28T01:19:25.524Z,99897.78
2022-07-28T01:22:33.241Z,99898.94
2022-07-28T01:25:36.774Z,99909.78
2022-07-28T01:29:07.025Z,99902.00
2022-07-28T01:32:22.475Z,99900.00
2022-07-28T01:35:29.085Z,99888.19
2022-07-28T01:38:35.346Z,99891.50
2022-07-28T01:41:41.588Z,99890.28
2022-07-28T01:44:48.920Z,99887.59
2022-07-28T01:47:54.489Z,99883.44
2022-07-28T01:50:57.916Z,99890.91
2022-07-28T01:54:03.318Z,99885.13
2022-07-28T01:57:11.008Z,99891.28
2022-07-28T02:00:14.428Z,99887.34
2022-07-28T02:03:21.158Z,99892.50
2022-07-28T02:06:24.972Z,99886.06
2022-07-28T02:09:30.386Z,99886.66
2022-07-28T02:12:35.821Z,99879.06
2022-07-28T02:15:42.477Z,99864.41
2022-07-28T02:18:47.020Z,99879.22
2022-07-28T02:21:51.961Z,99870.47
2022-07-28T02:24:56.767Z,99869.94
2022-07-28T02:28:04.301Z,99865.25
2022-07-28T02:31:14.030Z,99871.03
2022-07-28T02:34:26.330Z,99868.72
2022-07-28T02:37:54.404Z,99866.03
2022-07-28T02:41:01.588Z,99871.03
2022-07-28T02:44:16.166Z,99868.31
2022-07-28T02:47:24.283Z,99872.84
2022-07-28T02:50:29.198Z,99879.59
2022-07-28T02:53:33.951Z,99871.97
2022-07-28T02:56:37.707Z,99883.34
2022-07-28T02:59:42.775Z,99882.66
2022-07-28T03:02:48.776Z,99899.28
2022-07-28T03:05:52.372Z,99907.78
2022-07-28T03:08:55.346Z,99906.47
2022-07-28T03:11:59.515Z,99912.41
2022-07-28T03:15:02.499Z,99919.13
2022-07-28T03:18:06.808Z,99918.19
2022-07-28T03:21:12.442Z,99918.47
2022-07-28T03:24:17.899Z,99924.13
2022-07-28T03:27:20.709Z,99922.66
2022-07-28T03:30:32.228Z,99934.13
2022-07-28T03:33:35.751Z,99931.69
2022-07-28T03:36:44.341Z,99933.34
2022-07-28T03:39:51.090Z,99930.16
2022-07-28T03:42:55.049Z,99933.06
2022-07-28T03:45:57.937Z,99932.28
2022-07-28T03:49:00.898Z,99939.84
2022-07-28T03:52:03.650Z,99939.84
2022-07-28T03:55:08.383Z,99940.09
2022-07-28T03:58:11.144Z,99948.34
2022-07-28T04:01:14.516Z,99940.59
2022-07-28T04:04:17.944Z,99945.59
2022-07-28T04:07:20.748Z,99953.19
2022-07-28T04:10:23.839Z,99948.69
2022-07-28T04:13:26.412Z,99946.25
2022-07-28T04:16:30.173Z,99950.50
2022-07-28T04:19:32.862Z,99952.44
2022-07-28T04:22:36.013Z,99943.81
2022-07-28T04:25:38.916Z,99956.13
2022-07-28T04:28:44.439Z,99953.25
2022-07-28T04:31:47.121Z,99964.38
2022-07-28T04:34:50.279Z,99961.53
2022-07-28T04:37:55.697Z,99964.38
2022-07-28T04:40:58.960Z,99970.22
2022-07-28T04:44:01.627Z,99962.78
2022-07-28T04:47:06.355Z,99966.09
2022-07-28T04:50:11.909Z,99961.94
2022-07-28T04:53:14.877Z,99964.63
2022-07-28T04:56:17.519Z,99967.97
2022-07-28T04:59:21.712Z,99968.97
2022-07-28T05:02:24.638Z,99976.03
2022-07-28T05:05:28.001Z,99978.72
2022-07-28T05:08:30.682Z,99976.06
2022-07-28T05:11:33.787Z,99987.50
2022-07-28T05:14:36.664Z,99983.56
2022-07-28T05:17:39.770Z,99989.81
2022-07-28T05:20:42.294Z,99996.62
2022-07-28T05:23:47.652Z,99997.28
2022-07-28T05:26:53.262Z,99988.75
2022-07-28T05:29:56.392Z,100001.38
2022-07-28T05:33:01.916Z,100000.16
2022-07-28T05:36:05.409Z,100005.12
2022-07-28T05:39:08.242Z,100007.00
2022-07-28T05:42:11.194Z,100005.38
2022-07-28T05:45:16.004Z,100008.44
2022-07-28T05:48:21.092Z,100014.31
2022-07-28T05:51:24.397Z,100009.69
2022-07-28T05:54:27.349Z,100007.59
2022-07-28T05:57:29.927Z,100018.88
2022-07-28T06:00:36.598Z,100017.56
2022-07-28T06:03:42.386Z,100016.28
2022-07-28T06:06:45.669Z,100027.37
2022-07-28T06:09:48.662Z,100030.72
2022-07-28T06:12:56.387Z,100040.91
2022-07-28T06:15:59.763Z,100033.22
2022-07-28T06:19:05.224Z,100047.84
2022-07-28T06:22:08.563Z,100042.25
2022-07-28T06:25:18.271Z,100040.78
2022-07-28T06:28:21.274Z,100039.59
2022-07-28T06:31:24.168Z,100051.88
2022-07-28T06:34:27.142Z,100051.06
2022-07-28T06:37:29.817Z,100055.00
2022-07-28T06:40:32.751Z,100053.25
2022-07-28T06:43:38.833Z,100052.91
2022-07-28T06:46:42.484Z,100066.63
2022-07-28T06:49:45.364Z,100059.19
2022-07-28T06:52:48.201Z,100060.16
2022-07-28T06:55:50.863Z,100058.13
2022-07-28T06:58:53.857Z,100062.62
2022-07-28T07:02:01.822Z,100050.44
2022-07-28T07:05:05.125Z,100059.66
2022-07-28T07:08:08.296Z,100064.56
2022-07-28T07:11:12.027Z,100064.91
2022-07-28T07:14:15.042Z,100073.16
2022-07-28T07:17:18.038Z,100074.87
2022-07-28T07:20:21.361Z,100077.31
2022-07-28T07:23:24.477Z,100075.72
2022-07-28T07:26:27.324Z,100082.47
2022-07-28T07:29:31.425Z,100074.91
2022-07-28T07:32:35.148Z,100073.56
2022-07-28T07:35:46.873Z,100074.06
2022-07-28T07:38:49.908Z,100067.03
2022-07-28T07:41:54.943Z,100076.88
2022-07-28T07:44:57.676Z,100067.56
2022-07-28T07:48:02.187Z,100070.16
2022-07-28T07:51:05.503Z,100071.94
2022-07-28T07:54:10.882Z,100067.81
2022-07-28T07:57:14.809Z,100066.94
2022-07-28T08:00:28.320Z,100063.31
2022-07-28T08:03:32.871Z,100071.34
2022-07-28T08:06:35.829Z,100065.16
2022-07-28T08:09:39.212Z,100067.75
2022-07-28T08:12:42.005Z,100068.25
2022-07-28T08:15:44.995Z,100069.72
2022-07-28T08:18:47.669Z,100064.00
2022-07-28T08:21:52.280Z,100071.00
2022-07-28T08:24:55.491Z,100071.78
2022-07-28T08:27:58.520Z,100069.00
2022-07-28T08:31:01.655Z,100071.81
2022-07-28T08:34:05.065Z,100074.53
2022-07-28T08:37:27.789Z,100067.09
2022-07-28T08:40:35.846Z,100070.59
2022-07-28T08:43:42.631Z,100065.81
2022-07-28T08:46:49.077Z,100065.91
2022-07-28T08:49:53.434Z,100066.69
2022-07-28T08:52:59.675Z,100065.16
2022-07-28T08:56:08.183Z,100067.22
2022-07-28T08:59:11.424Z,100061.25
2022-07-28T09:02:15.144Z,100073.16
2022-07-28T09:05:24.966Z,100067.91
2022-07-28T09:08:29.385Z,100061.25
2022-07-28T09:11:32.360Z,100062.75
2022-07-28T09:14:35.484Z,100058.47
2022-07-28T09:17:43.663Z,100054.94
2022-07-28T09:20:46.685Z,100054.19
2022-07-28T09:23:50.361Z,100052.28
2022-07-28T09:27:06.956Z,100051.94
2022-07-28T09:30:13.242Z,100054.59
2022-07-28T09:33:41.034Z,100047.91
2022-07-28T09:36:46.881Z,100045.25
2022-07-28T09:39:58.017Z,100043.41
2022-07-28T09:43:01.137Z,100039.53
2022-07-28T09:46:08.148Z,100043.81
2022-07-28T09:49:11.813Z,100040.87
2022-07-28T09:52:30.436Z,100038.00
2022-07-28T09:55:53.692Z,100034.25
2022-07-28T09:59:03.490Z,100038.69
2022-07-28T10:02:06.612Z,100036.97
2022-07-28T10:05:13.098Z,100027.03
2022-07-28T10:08:16.403Z,100030.56
2022-07-28T10:11:26.851Z,100026.75
2022-07-28T10:14:32.584Z,100025.12
2022-07-28T10:17:35.567Z,100028.69
2022-07-28T10:20:38.580Z,100025.66
2022-07-28T10:23:48.913Z,100016.28
2022-07-28T10:26:56.529Z,100029.00
2022-07-28T10:30:04.306Z,100020.81
2022-07-28T10:33:13.893Z,100014.41
2022-07-28T10:36:22.803Z,100019.09
2022-07-28T10:39:32.079Z,99999.91
2022-07-28T10:42:36.285Z,100005.31
2022-07-28T10:46:04.490Z,100004.84
2022-07-28T10:49:05.224Z,99997.06
2022-07-28T10:52:45.345Z,100004.31
2022-07-28T10:55:55.201Z,99996.06
2022-07-28T10:59:29.477Z,99998.16
2022-07-28T11:03:02.231Z,99993.75
2022-07-28T11:06:36.992Z,99980.06
2022-07-28T11:09:40.450Z,99979.63
2022-07-28T11:13:04.010Z,99980.19
2022-07-28T11:16:13.471Z,99981.84
2022-07-28T11:19:42.359Z,99973.47
2022-07-28T11:22:41.821Z,99973.91
2022-07-28T11:25:44.465Z,99971.41
2022-07-28T11:29:00.126Z,99982.62
2022-07-28T11:32:04.060Z,99973.56
2022-07-28T11:35:11.569Z,99971.31
2022-07-28T11:38:19.856Z,99973.00
2022-07-28T11:41:32.237Z,99967.66
2022-07-28T11:44:55.469Z,99971.37
2022-07-28T11:48:21.430Z,99970.28
2022-07-28T11:51:24.193Z,99959.78
2022-07-28T11:54:32.069Z,99957.72
2022-07-28T11:57:44.197Z,99952.22
2022-07-28T12:00:48.408Z,99955.47
2022-07-28T12:03:55.863Z,99945.03
2022-07-28T12:07:00.532Z,99945.56
2022-07-28T12:14:15.761Z,99943.59
2022-07-28T12:17:20.274Z,99939.63
2022-07-28T12:20:31.835Z,99931.34
2022-07-28T12:23:46.043Z,99933.00
2022-07-28T12:27:31.892Z,99926.53
2022-07-28T12:30:34.239Z,99932.81
2022-07-28T12:34:13.335Z,99929.03
2022-07-28T12:37:17.479Z,99927.31
2022-07-28T12:40:27.511Z,99926.06
2022-07-28T12:43:31.064Z,99920.88
2022-07-28T12:46:35.434Z,99919.97
2022-07-28T12:49:41.255Z,99930.16
2022-07-28T12:53:01.012Z,99912.69
2022-07-28T12:56:05.509Z,99919.25
2022-07-28T12:59:10.586Z,99919.22
2022-07-28T13:02:13.956Z,99925.78
2022-07-28T13:05:54.076Z,99916.81
2022-07-28T13:08:57.251Z,99916.44
2022-07-28T13:12:01.467Z,99905.12
2022-07-28T13:19:04.473Z,99900.38
2022-07-28T13:22:27.389Z,99900.63
2022-07-28T13:25:30.548Z,99893.03
2022-07-28T13:28:35.696Z,99905.34
2022-07-28T13:31:39.303Z,99900.03
2022-07-28T13:34:42.543Z,99909.44
2022-07-28T13:37:45.502Z,99893.94
2022-07-28T13:40:48.533Z,99898.66
2022-07-28T13:43:52.451Z,99884.91
2022-07-28T13:46:56.467Z,99894.84
2022-07-28T13:49:59.851Z,99888.31
2022-07-28T13:53:02.562Z,99887.16
2022-07-28T13:56:10.247Z,99876.50
2022-07-28T13:59:13.819Z,99877.97
2022-07-28T14:03:01.128Z,99876.56
2022-07-28T14:06:04.704Z,99877.19
2022-07-28T14:09:08.524Z,99871.84
2022-07-28T14:12:16.645Z,99870.28
2022-07-28T14:15:19.363Z,99873.56
2022-07-28T14:18:32.373Z,99872.00
2022-07-28T14:21:35.561Z,99869.09
2022-07-28T14:24:54.392Z,99868.31
2022-07-28T14:28:22.984Z,99860.34
2022-07-28T14:31:48.524Z,99868.25
2022-07-28T14:34:57.734Z,99865.16
2022-07-28T14:38:49.785Z,99858.22
2022-07-28T14:41:28.295Z,99857.38
2022-07-28T14:44:31.409Z,99860.34
2022-07-28T14:47:44.005Z,99850.50
2022-07-28T14:50:55.697Z,99839.84
2022-07-28T14:54:03.917Z,99842.53
2022-07-28T14:57:07.194Z,99849.34
2022-07-28T15:00:17.252Z,99850.53
2022-07-28T15:03:20.714Z,99839.22
2022-07-28T15:06:23.632Z,99843.56
2022-07-28T15:09:27.305Z,99842.84
2022-07-28T15:12:39.326Z,99846.31
2022-07-28T15:15:44.780Z,99840.66
2022-07-28T15:18:47.731Z,99835.91
2022-07-28T15:21:54.509Z,99832.97
2022-07-28T15:25:01.081Z,99832.59
2022-07-28T15:28:05.081Z,99828.41
2022-07-28T15:31:08.661Z,99843.06
2022-07-28T15:34:12.800Z,99834.53
2022-07-28T15:37:16.345Z,99827.97
2022-07-28T15:40:19.553Z,99827.22
2022-07-28T15:43:24.152Z,99827.34
2022-07-28T15:46:29.683Z,99826.81
2022-07-28T15:49:40.477Z,99828.75
2022-07-28T15:52:43.752Z,99830.25
2022-07-28T15:55:50.995Z,99827.84
2022-07-28T15:58:57.362Z,99822.97
2022-07-28T16:02:00.944Z,99823.13
2022-07-28T16:05:06.187Z,99823.41
2022-07-28T16:08:08.900Z,99830.19
2022-07-28T16:11:12.158Z,99822.78
2022-07-28T16:14:16.108Z,99822.47
2022-07-28T16:17:21.196Z,99818.41
2022-07-28T16:20:24.451Z,99822.91
2022-07-28T16:23:28.445Z,99829.69
2022-07-28T16:26:31.231Z,99821.28
2022-07-28T16:29:34.840Z,99816.13
2022-07-28T16:32:42.610Z,99821.94
2022-07-28T16:35:45.886Z,99825.16
2022-07-28T16:38:48.670Z,99826.28
2022-07-28T16:41:53.247Z,99826.94
2022-07-28T16:44:56.040Z,99820.97
2022-07-28T16:48:01.253Z,99826.88
2022-07-28T16:51:05.745Z,99829.38
2022-07-28T16:54:14.252Z,99832.28
2022-07-28T16:57:19.952Z,99839.56
2022-07-28T17:00:26.001Z,99833.25
2022-07-28T17:03:29.062Z,99837.16
2022-07-28T17:06:31.995Z,99831.59
2022-07-28T17:09:34.695Z,99819.22
2022-07-28T17:12:38.696Z,99830.03
2022-07-28T17:15:42.401Z,99835.91
2022-07-28T17:18:45.874Z,99837.34
2022-07-28T17:21:50.564Z,99836.00
2022-07-28T17:24:54.094Z,99833.63
2022-07-28T17:27:59.336Z,99836.13
2022-07-28T17:31:02.648Z,99838.47
2022-07-28T17:34:05.976Z,99835.03
2022-07-28T17:37:08.960Z,99830.69
2022-07-28T17:40:12.306Z,99838.47
2022-07-28T17:43:23.538Z,99827.63
2022-07-28T17:46:26.543Z,99837.47
2022-07-28T17:49:31.015Z,99839.13
2022-07-28T17:52:33.747Z,99838.53
2022-07-28T17:56:00.899Z,99842.13
2022-07-28T17:59:02.479Z,99851.34
2022-07-28T18:02:06.946Z,99854.00
2022-07-28T18:05:12.798Z,99855.97
2022-07-28T18:08:17.231Z,99855.78
2022-07-28T18:11:20.303Z,99849.66
2022-07-28T18:14:23.484Z,99857.38
2022-07-28T18:17:28.187Z,99855.06
2022-07-28T18:20:31.962Z,99859.66
2022-07-28T18:23:38.594Z,99855.75
2022-07-28T18:26:41.343Z,99860.25
2022-07-28T18:29:45.444Z,99855.63
2022-07-28T18:32:50.974Z,99866.28
2022-07-28T18:35:54.026Z,99863.69
2022-07-28T18:38:56.869Z,99871.97
2022-07-28T18:42:01.286Z,99870.41
2022-07-28T18:45:39.433Z,99876.81
2022-07-28T18:48:42.419Z,99879.09
2022-07-28T18:51:46.015Z,99879.00
2022-07-28T18:54:55.719Z,99882.44
2022-07-28T18:57:58.473Z,99888.00
2022-07-28T19:01:01.733Z,99889.53
2022-07-28T19:04:05.553Z,99890.12
2022-07-28T19:07:09.496Z,99899.09
2022-07-28T19:10:12.255Z,99895.44
2022-07-28T19:13:16.497Z,99894.50
2022-07-28T19:16:19.843Z,99896.00
2022-07-28T19:19:22.880Z,99896.50
2022-07-28T19:22:25.998Z,99893.91
2022-07-28T19:25:32.058Z,99903.09
2022-07-28T19:28:57.217Z,99899.69
2022-07-28T19:32:03.425Z,99901.91
